Terminal Aerodrome Forecast
Issued by NWS

Home | Current Version | Previous Version | Text Only | Print | Product List | Glossary On
Versions: 1 2 3 4 5 6 7 8 9 10 11 12 13 14 15 16
000
FTUS45 KFGZ 241140
TAFPRC
TAF
KPRC 241140Z 2412/2512 21005KT P6SM FEW070 SCT200
     FM241800 25010G18KT P6SM OVC080
     FM250300 21005KT P6SM FEW080 SCT120=

USA.gov is the U.S. government's official web portal to all federal, state and local government web resources and services.